sensor_id;sensor_type;location;lat;lon;timestamp;temperature;humidity
70170;DHT22;57543;45.442;9.212;2023-07-31T00:00:47;27.61;68.80
70170;DHT22;57543;45.442;9.212;2023-07-31T00:03:50;27.66;68.56
70170;DHT22;57543;45.442;9.212;2023-07-31T00:06:54;27.70;68.35
70170;DHT22;57543;45.442;9.212;2023-07-31T00:09:57;27.65;68.42
70170;DHT22;57543;45.442;9.212;2023-07-31T00:13:04;27.62;68.56
70170;DHT22;57543;45.442;9.212;2023-07-31T00:16:08;27.63;68.55
70170;DHT22;57543;45.442;9.212;2023-07-31T00:19:12;27.63;68.25
70170;DHT22;57543;45.442;9.212;2023-07-31T00:22:15;27.51;68.41
70170;DHT22;57543;45.442;9.212;2023-07-31T00:25:19;27.20;68.88
70170;DHT22;57543;45.442;9.212;2023-07-31T00:28:23;26.91;69.31
70170;DHT22;57543;45.442;9.212;2023-07-31T00:31:27;26.86;69.40
70170;DHT22;57543;45.442;9.212;2023-07-31T00:34:30;26.89;69.30
70170;DHT22;57543;45.442;9.212;2023-07-31T00:37:33;27.01;68.99
70170;DHT22;57543;45.442;9.212;2023-07-31T00:40:37;26.99;69.35
70170;DHT22;57543;45.442;9.212;2023-07-31T00:43:43;27.00;68.93
70170;DHT22;57543;45.442;9.212;2023-07-31T00:46:46;26.83;68.96
70170;DHT22;57543;45.442;9.212;2023-07-31T00:49:50;26.83;69.05
70170;DHT22;57543;45.442;9.212;2023-07-31T00:52:53;26.99;68.88
70170;DHT22;57543;45.442;9.212;2023-07-31T00:55:57;27.03;68.76
70170;DHT22;57543;45.442;9.212;2023-07-31T00:59:02;26.93;68.84
70170;DHT22;57543;45.442;9.212;2023-07-31T01:02:06;27.00;68.79
70170;DHT22;57543;45.442;9.212;2023-07-31T01:05:09;27.10;68.55
70170;DHT22;57543;45.442;9.212;2023-07-31T01:08:28;27.15;68.46
70170;DHT22;57543;45.442;9.212;2023-07-31T01:11:41;27.24;68.26
70170;DHT22;57543;45.442;9.212;2023-07-31T01:18:06;27.06;68.82
70170;DHT22;57543;45.442;9.212;2023-07-31T01:21:18;27.14;68.68
70170;DHT22;57543;45.442;9.212;2023-07-31T01:24:35;27.20;68.56
70170;DHT22;57543;45.442;9.212;2023-07-31T01:28:06;27.10;68.74
70170;DHT22;57543;45.442;9.212;2023-07-31T01:31:14;27.15;68.79
70170;DHT22;57543;45.442;9.212;2023-07-31T01:34:19;26.99;69.00
70170;DHT22;57543;45.442;9.212;2023-07-31T01:37:28;27.06;68.91
70170;DHT22;57543;45.442;9.212;2023-07-31T01:40:35;26.82;69.64
70170;DHT22;57543;45.442;9.212;2023-07-31T01:43:38;26.84;69.42
70170;DHT22;57543;45.442;9.212;2023-07-31T01:46:42;26.96;69.22
70170;DHT22;57543;45.442;9.212;2023-07-31T01:49:46;27.00;69.07
70170;DHT22;57543;45.442;9.212;2023-07-31T01:52:49;26.97;68.93
70170;DHT22;57543;45.442;9.212;2023-07-31T01:55:52;26.99;68.88
70170;DHT22;57543;45.442;9.212;2023-07-31T01:58:56;26.71;69.67
70170;DHT22;57543;45.442;9.212;2023-07-31T02:01:59;26.44;70.13
70170;DHT22;57543;45.442;9.212;2023-07-31T02:05:04;26.55;70.12
70170;DHT22;57543;45.442;9.212;2023-07-31T02:08:08;26.56;69.91
70170;DHT22;57543;45.442;9.212;2023-07-31T02:11:12;26.63;69.66
70170;DHT22;57543;45.442;9.212;2023-07-31T02:14:15;26.34;70.26
70170;DHT22;57543;45.442;9.212;2023-07-31T02:17:19;26.34;70.37
70170;DHT22;57543;45.442;9.212;2023-07-31T02:20:23;26.46;70.01
70170;DHT22;57543;45.442;9.212;2023-07-31T02:23:27;26.51;69.80
70170;DHT22;57543;45.442;9.212;2023-07-31T02:26:31;26.49;69.70
70170;DHT22;57543;45.442;9.212;2023-07-31T02:29:34;26.41;69.98
70170;DHT22;57543;45.442;9.212;2023-07-31T02:32:38;26.44;69.97
70170;DHT22;57543;45.442;9.212;2023-07-31T02:35:42;26.41;70.06
70170;DHT22;57543;45.442;9.212;2023-07-31T02:38:46;26.46;69.94
70170;DHT22;57543;45.442;9.212;2023-07-31T02:41:50;26.38;70.10
70170;DHT22;57543;45.442;9.212;2023-07-31T02:44:54;26.48;69.83
70170;DHT22;57543;45.442;9.212;2023-07-31T02:47:59;26.46;69.91
70170;DHT22;57543;45.442;9.212;2023-07-31T02:51:04;26.29;70.18
70170;DHT22;57543;45.442;9.212;2023-07-31T02:54:07;26.17;70.64
70170;DHT22;57543;45.442;9.212;2023-07-31T02:57:11;26.31;70.31
70170;DHT22;57543;45.442;9.212;2023-07-31T03:00:15;26.31;70.56
70170;DHT22;57543;45.442;9.212;2023-07-31T03:03:18;26.27;70.54
70170;DHT22;57543;45.442;9.212;2023-07-31T03:06:22;26.38;70.14
70170;DHT22;57543;45.442;9.212;2023-07-31T03:09:25;26.18;70.72
70170;DHT22;57543;45.442;9.212;2023-07-31T03:12:29;26.31;70.34
70170;DHT22;57543;45.442;9.212;2023-07-31T03:15:33;26.31;70.11
70170;DHT22;57543;45.442;9.212;2023-07-31T03:18:36;26.10;70.75
70170;DHT22;57543;45.442;9.212;2023-07-31T03:21:40;26.27;70.24
70170;DHT22;57543;45.442;9.212;2023-07-31T03:24:44;26.35;70.04
70170;DHT22;57543;45.442;9.212;2023-07-31T03:27:47;26.39;69.98
70170;DHT22;57543;45.442;9.212;2023-07-31T03:30:52;26.21;70.30
70170;DHT22;57543;45.442;9.212;2023-07-31T03:33:55;26.31;70.00
70170;DHT22;57543;45.442;9.212;2023-07-31T03:36:59;26.32;70.01
70170;DHT22;57543;45.442;9.212;2023-07-31T03:40:04;26.41;69.79
70170;DHT22;57543;45.442;9.212;2023-07-31T03:43:08;26.37;69.90
70170;DHT22;57543;45.442;9.212;2023-07-31T03:46:12;26.39;69.76
70170;DHT22;57543;45.442;9.212;2023-07-31T03:49:15;26.46;69.48
70170;DHT22;57543;45.442;9.212;2023-07-31T03:52:19;26.42;69.49
70170;DHT22;57543;45.442;9.212;2023-07-31T03:55:22;26.44;69.55
70170;DHT22;57543;45.442;9.212;2023-07-31T03:58:25;26.41;69.49
70170;DHT22;57543;45.442;9.212;2023-07-31T04:01:32;26.41;69.49
70170;DHT22;57543;45.442;9.212;2023-07-31T04:04:35;26.27;69.94
70170;DHT22;57543;45.442;9.212;2023-07-31T04:07:38;26.34;69.66
70170;DHT22;57543;45.442;9.212;2023-07-31T04:10:42;26.39;69.52
70170;DHT22;57543;45.442;9.212;2023-07-31T04:13:45;26.44;69.46
70170;DHT22;57543;45.442;9.212;2023-07-31T04:16:50;26.44;69.38
70170;DHT22;57543;45.442;9.212;2023-07-31T04:19:54;26.45;69.37
70170;DHT22;57543;45.442;9.212;2023-07-31T04:22:57;26.44;69.59
70170;DHT22;57543;45.442;9.212;2023-07-31T04:26:01;26.45;69.50
70170;DHT22;57543;45.442;9.212;2023-07-31T04:29:05;26.44;69.68
70170;DHT22;57543;45.442;9.212;2023-07-31T04:32:09;26.37;69.71
70170;DHT22;57543;45.442;9.212;2023-07-31T04:35:12;26.37;69.85
70170;DHT22;57543;45.442;9.212;2023-07-31T04:38:16;26.39;69.76
70170;DHT22;57543;45.442;9.212;2023-07-31T04:41:19;26.38;69.68
70170;DHT22;57543;45.442;9.212;2023-07-31T04:44:23;26.45;69.62
70170;DHT22;57543;45.442;9.212;2023-07-31T04:47:27;26.52;69.46
70170;DHT22;57543;45.442;9.212;2023-07-31T04:50:30;26.52;69.34
70170;DHT22;57543;45.442;9.212;2023-07-31T04:53:34;26.56;69.30
70170;DHT22;57543;45.442;9.212;2023-07-31T04:56:38;26.53;69.30
70170;DHT22;57543;45.442;9.212;2023-07-31T04:59:41;26.57;69.11
70170;DHT22;57543;45.442;9.212;2023-07-31T05:02:45;26.65;69.00
70170;DHT22;57543;45.442;9.212;2023-07-31T05:05:49;26.68;68.96
70170;DHT22;57543;45.442;9.212;2023-07-31T05:08:53;26.68;68.96
70170;DHT22;57543;45.442;9.212;2023-07-31T05:11:57;26.56;69.42
70170;DHT22;57543;45.442;9.212;2023-07-31T05:15:00;26.42;69.67
70170;DHT22;57543;45.442;9.212;2023-07-31T05:18:04;26.49;69.58
70170;DHT22;57543;45.442;9.212;2023-07-31T05:21:07;26.55;69.44
70170;DHT22;57543;45.442;9.212;2023-07-31T05:24:10;26.56;69.54
70170;DHT22;57543;45.442;9.212;2023-07-31T05:27:14;26.52;69.95
70170;DHT22;57543;45.442;9.212;2023-07-31T05:30:21;26.60;69.73
70170;DHT22;57543;45.442;9.212;2023-07-31T05:33:24;26.68;69.77
70170;DHT22;57543;45.442;9.212;2023-07-31T05:36:28;26.75;69.37
70170;DHT22;57543;45.442;9.212;2023-07-31T05:39:32;26.79;69.10
70170;DHT22;57543;45.442;9.212;2023-07-31T05:42:35;26.94;68.66
70170;DHT22;57543;45.442;9.212;2023-07-31T05:45:42;27.03;68.24
70170;DHT22;57543;45.442;9.212;2023-07-31T05:48:46;27.08;67.89
70170;DHT22;57543;45.442;9.212;2023-07-31T05:51:49;27.20;67.46
70170;DHT22;57543;45.442;9.212;2023-07-31T05:54:52;27.30;67.01
70170;DHT22;57543;45.442;9.212;2023-07-31T05:57:56;27.34;66.78
70170;DHT22;57543;45.442;9.212;2023-07-31T06:01:00;27.39;66.59
70170;DHT22;57543;45.442;9.212;2023-07-31T06:04:03;27.48;66.37
70170;DHT22;57543;45.442;9.212;2023-07-31T06:07:07;27.55;66.12
70170;DHT22;57543;45.442;9.212;2023-07-31T06:10:10;27.62;65.86
70170;DHT22;57543;45.442;9.212;2023-07-31T06:13:14;27.56;65.17
70170;DHT22;57543;45.442;9.212;2023-07-31T06:16:18;27.51;64.84
70170;DHT22;57543;45.442;9.212;2023-07-31T06:19:22;27.35;65.37
70170;DHT22;57543;45.442;9.212;2023-07-31T06:22:26;27.49;65.57
70170;DHT22;57543;45.442;9.212;2023-07-31T06:25:29;27.58;65.00
70170;DHT22;57543;45.442;9.212;2023-07-31T06:28:34;27.63;65.04
70170;DHT22;57543;45.442;9.212;2023-07-31T06:31:38;27.66;64.65
70170;DHT22;57543;45.442;9.212;2023-07-31T06:34:42;27.63;64.27
70170;DHT22;57543;45.442;9.212;2023-07-31T06:37:45;27.45;64.44
70170;DHT22;57543;45.442;9.212;2023-07-31T06:40:48;27.59;64.44
70170;DHT22;57543;45.442;9.212;2023-07-31T06:43:52;27.63;63.92
70170;DHT22;57543;45.442;9.212;2023-07-31T06:46:56;27.73;63.89
70170;DHT22;57543;45.442;9.212;2023-07-31T06:49:59;27.83;63.44
70170;DHT22;57543;45.442;9.212;2023-07-31T06:53:03;27.73;62.75
70170;DHT22;57543;45.442;9.212;2023-07-31T06:56:07;27.66;62.31
70170;DHT22;57543;45.442;9.212;2023-07-31T06:59:11;27.80;62.37
70170;DHT22;57543;45.442;9.212;2023-07-31T07:02:17;27.86;62.36
70170;DHT22;57543;45.442;9.212;2023-07-31T07:05:24;27.97;62.13
70170;DHT22;57543;45.442;9.212;2023-07-31T07:08:27;28.04;61.26
70170;DHT22;57543;45.442;9.212;2023-07-31T07:11:31;27.92;60.75
70170;DHT22;57543;45.442;9.212;2023-07-31T07:14:35;27.80;61.13
70170;DHT22;57543;45.442;9.212;2023-07-31T07:17:38;27.90;61.17
70170;DHT22;57543;45.442;9.212;2023-07-31T07:20:50;28.11;60.47
70170;DHT22;57543;45.442;9.212;2023-07-31T07:23:53;28.04;60.47
70170;DHT22;57543;45.442;9.212;2023-07-31T07:26:57;28.17;60.13
70170;DHT22;57543;45.442;9.212;2023-07-31T07:30:01;28.14;60.51
70170;DHT22;57543;45.442;9.212;2023-07-31T07:33:04;28.25;60.07
70170;DHT22;57543;45.442;9.212;2023-07-31T07:36:08;28.25;60.33
70170;DHT22;57543;45.442;9.212;2023-07-31T07:39:12;28.20;60.37
70170;DHT22;57543;45.442;9.212;2023-07-31T07:42:16;28.15;60.20
70170;DHT22;57543;45.442;9.212;2023-07-31T07:45:20;28.00;61.02
70170;DHT22;57543;45.442;9.212;2023-07-31T07:48:23;27.92;60.98
70170;DHT22;57543;45.442;9.212;2023-07-31T07:51:28;28.04;60.16
70170;DHT22;57543;45.442;9.212;2023-07-31T07:54:33;27.97;60.24
70170;DHT22;57543;45.442;9.212;2023-07-31T07:57:37;28.00;60.43
70170;DHT22;57543;45.442;9.212;2023-07-31T08:00:41;28.29;60.13
70170;DHT22;57543;45.442;9.212;2023-07-31T08:03:46;28.22;59.24
70170;DHT22;57543;45.442;9.212;2023-07-31T08:06:49;28.38;59.30
70170;DHT22;57543;45.442;9.212;2023-07-31T08:09:53;28.31;59.64
70170;DHT22;57543;45.442;9.212;2023-07-31T08:12:57;28.42;59.26
70170;DHT22;57543;45.442;9.212;2023-07-31T08:16:01;28.48;59.36
70170;DHT22;57543;45.442;9.212;2023-07-31T08:19:04;28.52;59.51
70170;DHT22;57543;45.442;9.212;2023-07-31T08:22:09;28.52;59.19
70170;DHT22;57543;45.442;9.212;2023-07-31T08:25:13;28.49;59.43
70170;DHT22;57543;45.442;9.212;2023-07-31T08:28:17;28.42;59.50
70170;DHT22;57543;45.442;9.212;2023-07-31T08:31:23;28.38;59.38
70170;DHT22;57543;45.442;9.212;2023-07-31T08:34:26;28.27;59.85
70170;DHT22;57543;45.442;9.212;2023-07-31T08:37:30;28.32;59.48
70170;DHT22;57543;45.442;9.212;2023-07-31T08:40:36;28.32;59.79
70170;DHT22;57543;45.442;9.212;2023-07-31T08:43:47;28.59;59.13
70170;DHT22;57543;45.442;9.212;2023-07-31T08:46:52;28.70;58.23
70170;DHT22;57543;45.442;9.212;2023-07-31T08:49:58;28.86;58.16
70170;DHT22;57543;45.442;9.212;2023-07-31T08:53:02;28.70;58.76
70170;DHT22;57543;45.442;9.212;2023-07-31T08:56:06;28.63;58.89
70170;DHT22;57543;45.442;9.212;2023-07-31T08:59:12;28.53;59.79
70170;DHT22;57543;45.442;9.212;2023-07-31T09:02:17;28.35;60.68
70170;DHT22;57543;45.442;9.212;2023-07-31T09:05:23;28.48;60.34
70170;DHT22;57543;45.442;9.212;2023-07-31T09:08:30;28.75;60.32
70170;DHT22;57543;45.442;9.212;2023-07-31T09:11:36;29.15;59.12
70170;DHT22;57543;45.442;9.212;2023-07-31T09:14:45;29.22;59.08
70170;DHT22;57543;45.442;9.212;2023-07-31T09:17:59;29.41;58.87
70170;DHT22;57543;45.442;9.212;2023-07-31T09:21:06;29.54;59.03
70170;DHT22;57543;45.442;9.212;2023-07-31T09:24:24;29.80;58.43
70170;DHT22;57543;45.442;9.212;2023-07-31T09:27:45;29.93;58.21
70170;DHT22;57543;45.442;9.212;2023-07-31T09:30:51;30.07;58.27
70170;DHT22;57543;45.442;9.212;2023-07-31T09:33:55;30.23;58.14
70170;DHT22;57543;45.442;9.212;2023-07-31T09:37:01;30.37;57.51
70170;DHT22;57543;45.442;9.212;2023-07-31T09:40:06;30.29;56.50
70170;DHT22;57543;45.442;9.212;2023-07-31T09:43:21;30.52;56.66
70170;DHT22;57543;45.442;9.212;2023-07-31T09:46:26;30.55;56.61
70170;DHT22;57543;45.442;9.212;2023-07-31T09:49:30;30.31;56.68
70170;DHT22;57543;45.442;9.212;2023-07-31T09:52:34;30.42;56.76
70170;DHT22;57543;45.442;9.212;2023-07-31T09:55:38;30.38;56.93
70170;DHT22;57543;45.442;9.212;2023-07-31T09:58:41;30.65;56.29
70170;DHT22;57543;45.442;9.212;2023-07-31T10:01:45;30.59;56.36
70170;DHT22;57543;45.442;9.212;2023-07-31T10:04:50;30.80;56.14
70170;DHT22;57543;45.442;9.212;2023-07-31T10:07:55;30.90;55.46
70170;DHT22;57543;45.442;9.212;2023-07-31T10:11:00;30.90;55.64
70170;DHT22;57543;45.442;9.212;2023-07-31T10:14:07;30.94;55.87
70170;DHT22;57543;45.442;9.212;2023-07-31T10:17:11;31.10;55.13
70170;DHT22;57543;45.442;9.212;2023-07-31T10:20:16;31.11;54.81
70170;DHT22;57543;45.442;9.212;2023-07-31T10:23:22;31.24;53.72
70170;DHT22;57543;45.442;9.212;2023-07-31T10:26:26;31.39;54.11
70170;DHT22;57543;45.442;9.212;2023-07-31T10:29:29;31.68;53.86
70170;DHT22;57543;45.442;9.212;2023-07-31T10:32:34;31.76;53.66
70170;DHT22;57543;45.442;9.212;2023-07-31T10:35:38;31.75;53.23
70170;DHT22;57543;45.442;9.212;2023-07-31T10:38:41;31.66;53.41
70170;DHT22;57543;45.442;9.212;2023-07-31T10:41:46;31.63;53.32
70170;DHT22;57543;45.442;9.212;2023-07-31T10:44:49;31.82;53.38
70170;DHT22;57543;45.442;9.212;2023-07-31T10:48:02;31.78;53.68
70170;DHT22;57543;45.442;9.212;2023-07-31T10:51:11;31.93;53.88
70170;DHT22;57543;45.442;9.212;2023-07-31T10:54:16;31.52;53.46
70170;DHT22;57543;45.442;9.212;2023-07-31T10:57:22;31.66;53.85
70170;DHT22;57543;45.442;9.212;2023-07-31T11:00:29;31.86;54.03
70170;DHT22;57543;45.442;9.212;2023-07-31T11:03:47;31.90;53.56
70170;DHT22;57543;45.442;9.212;2023-07-31T11:07:02;32.23;53.40
70170;DHT22;57543;45.442;9.212;2023-07-31T11:10:07;32.17;53.21
70170;DHT22;57543;45.442;9.212;2023-07-31T11:13:11;32.44;52.91
70170;DHT22;57543;45.442;9.212;2023-07-31T11:16:15;32.24;53.25
70170;DHT22;57543;45.442;9.212;2023-07-31T11:19:23;32.17;53.03
70170;DHT22;57543;45.442;9.212;2023-07-31T11:22:27;32.42;53.01
70170;DHT22;57543;45.442;9.212;2023-07-31T11:25:32;32.50;52.89
70170;DHT22;57543;45.442;9.212;2023-07-31T11:28:35;32.55;53.44
70170;DHT22;57543;45.442;9.212;2023-07-31T11:31:43;32.40;53.24
70170;DHT22;57543;45.442;9.212;2023-07-31T11:34:53;32.55;53.35
70170;DHT22;57543;45.442;9.212;2023-07-31T11:37:58;32.78;52.99
70170;DHT22;57543;45.442;9.212;2023-07-31T11:41:03;32.54;50.64
70170;DHT22;57543;45.442;9.212;2023-07-31T11:44:07;32.67;51.06
70170;DHT22;57543;45.442;9.212;2023-07-31T11:47:11;32.83;52.35
70170;DHT22;57543;45.442;9.212;2023-07-31T11:50:15;32.80;52.01
70170;DHT22;57543;45.442;9.212;2023-07-31T11:53:24;32.98;52.39
70170;DHT22;57543;45.442;9.212;2023-07-31T11:56:29;33.09;52.47
70170;DHT22;57543;45.442;9.212;2023-07-31T11:59:33;33.23;52.04
70170;DHT22;57543;45.442;9.212;2023-07-31T12:02:37;33.33;52.37
70170;DHT22;57543;45.442;9.212;2023-07-31T12:05:43;33.27;52.11
70170;DHT22;57543;45.442;9.212;2023-07-31T12:08:47;32.76;51.91
70170;DHT22;57543;45.442;9.212;2023-07-31T12:11:51;32.20;53.00
70170;DHT22;57543;45.442;9.212;2023-07-31T12:14:57;32.30;52.73
70170;DHT22;57543;45.442;9.212;2023-07-31T12:18:04;32.54;52.95
70170;DHT22;57543;45.442;9.212;2023-07-31T12:21:09;32.57;52.59
70170;DHT22;57543;45.442;9.212;2023-07-31T12:24:14;32.51;52.73
70170;DHT22;57543;45.442;9.212;2023-07-31T12:27:18;32.50;52.60
70170;DHT22;57543;45.442;9.212;2023-07-31T12:30:32;32.69;51.94
70170;DHT22;57543;45.442;9.212;2023-07-31T12:33:39;32.79;52.44
70170;DHT22;57543;45.442;9.212;2023-07-31T12:36:43;32.62;52.52
70170;DHT22;57543;45.442;9.212;2023-07-31T12:39:46;32.74;51.91
70170;DHT22;57543;45.442;9.212;2023-07-31T12:42:49;32.95;52.13
70170;DHT22;57543;45.442;9.212;2023-07-31T12:45:55;33.07;52.59
70170;DHT22;57543;45.442;9.212;2023-07-31T12:49:00;33.20;50.87
70170;DHT22;57543;45.442;9.212;2023-07-31T12:52:04;33.13;51.74
70170;DHT22;57543;45.442;9.212;2023-07-31T12:55:07;33.24;51.00
70170;DHT22;57543;45.442;9.212;2023-07-31T12:58:11;32.92;51.05
70170;DHT22;57543;45.442;9.212;2023-07-31T13:01:15;33.00;51.49
70170;DHT22;57543;45.442;9.212;2023-07-31T13:04:19;33.03;50.63
70170;DHT22;57543;45.442;9.212;2023-07-31T13:07:23;33.20;50.18
70170;DHT22;57543;45.442;9.212;2023-07-31T13:10:27;33.40;50.32
70170;DHT22;57543;45.442;9.212;2023-07-31T13:13:31;33.34;49.63
70170;DHT22;57543;45.442;9.212;2023-07-31T13:16:35;33.09;50.04
70170;DHT22;57543;45.442;9.212;2023-07-31T13:19:39;33.20;50.72
70170;DHT22;57543;45.442;9.212;2023-07-31T13:22:43;33.14;50.86
70170;DHT22;57543;45.442;9.212;2023-07-31T13:25:46;33.37;51.18
70170;DHT22;57543;45.442;9.212;2023-07-31T13:28:50;33.46;51.62
70170;DHT22;57543;45.442;9.212;2023-07-31T13:31:53;33.29;49.78
70170;DHT22;57543;45.442;9.212;2023-07-31T13:34:56;33.44;48.96
70170;DHT22;57543;45.442;9.212;2023-07-31T13:38:00;33.55;49.22
70170;DHT22;57543;45.442;9.212;2023-07-31T13:41:03;33.65;49.32
70170;DHT22;57543;45.442;9.212;2023-07-31T13:44:09;33.71;49.24
70170;DHT22;57543;45.442;9.212;2023-07-31T13:47:12;33.82;50.20
70170;DHT22;57543;45.442;9.212;2023-07-31T13:50:15;33.51;48.54
70170;DHT22;57543;45.442;9.212;2023-07-31T13:53:20;33.47;48.77
70170;DHT22;57543;45.442;9.212;2023-07-31T13:56:23;33.55;48.62
70170;DHT22;57543;45.442;9.212;2023-07-31T13:59:26;33.65;48.28
70170;DHT22;57543;45.442;9.212;2023-07-31T14:02:29;33.83;48.64
70170;DHT22;57543;45.442;9.212;2023-07-31T14:05:33;33.81;47.21
70170;DHT22;57543;45.442;9.212;2023-07-31T14:08:37;33.58;46.89
70170;DHT22;57543;45.442;9.212;2023-07-31T14:11:40;33.57;46.73
70170;DHT22;57543;45.442;9.212;2023-07-31T14:14:43;33.38;46.43
70170;DHT22;57543;45.442;9.212;2023-07-31T14:17:47;33.53;45.88
70170;DHT22;57543;45.442;9.212;2023-07-31T14:20:51;33.66;45.98
70170;DHT22;57543;45.442;9.212;2023-07-31T14:23:54;33.68;46.54
70170;DHT22;57543;45.442;9.212;2023-07-31T14:26:58;33.68;46.43
70170;DHT22;57543;45.442;9.212;2023-07-31T14:30:02;33.69;46.71
70170;DHT22;57543;45.442;9.212;2023-07-31T14:33:06;33.72;46.91
70170;DHT22;57543;45.442;9.212;2023-07-31T14:36:10;33.40;46.83
70170;DHT22;57543;45.442;9.212;2023-07-31T14:39:14;33.55;47.58
70170;DHT22;57543;45.442;9.212;2023-07-31T14:42:18;33.30;45.76
70170;DHT22;57543;45.442;9.212;2023-07-31T14:45:22;33.40;45.99
70170;DHT22;57543;45.442;9.212;2023-07-31T14:48:26;33.50;46.14
70170;DHT22;57543;45.442;9.212;2023-07-31T14:51:30;33.47;46.95
70170;DHT22;57543;45.442;9.212;2023-07-31T14:54:34;33.47;46.79
70170;DHT22;57543;45.442;9.212;2023-07-31T14:57:38;32.99;47.85
70170;DHT22;57543;45.442;9.212;2023-07-31T15:00:41;33.30;47.02
70170;DHT22;57543;45.442;9.212;2023-07-31T15:03:45;33.26;46.81
70170;DHT22;57543;45.442;9.212;2023-07-31T15:06:50;33.34;47.00
70170;DHT22;57543;45.442;9.212;2023-07-31T15:09:53;33.27;46.85
70170;DHT22;57543;45.442;9.212;2023-07-31T15:12:57;33.47;47.11
70170;DHT22;57543;45.442;9.212;2023-07-31T15:16:00;33.34;46.41
70170;DHT22;57543;45.442;9.212;2023-07-31T15:19:04;33.46;46.71
70170;DHT22;57543;45.442;9.212;2023-07-31T15:22:07;33.51;47.51
70170;DHT22;57543;45.442;9.212;2023-07-31T15:25:11;33.47;46.87
70170;DHT22;57543;45.442;9.212;2023-07-31T15:28:15;33.40;46.52
70170;DHT22;57543;45.442;9.212;2023-07-31T15:31:21;33.38;47.17
70170;DHT22;57543;45.442;9.212;2023-07-31T15:34:25;33.41;46.50
70170;DHT22;57543;45.442;9.212;2023-07-31T15:37:29;33.33;47.52
70170;DHT22;57543;45.442;9.212;2023-07-31T15:40:33;33.17;47.72
70170;DHT22;57543;45.442;9.212;2023-07-31T15:43:37;33.10;48.23
70170;DHT22;57543;45.442;9.212;2023-07-31T15:46:41;32.64;47.05
70170;DHT22;57543;45.442;9.212;2023-07-31T15:49:45;32.72;46.78
70170;DHT22;57543;45.442;9.212;2023-07-31T15:52:49;32.67;47.25
70170;DHT22;57543;45.442;9.212;2023-07-31T15:55:53;32.75;47.20
70170;DHT22;57543;45.442;9.212;2023-07-31T15:58:59;32.64;46.99
70170;DHT22;57543;45.442;9.212;2023-07-31T16:02:03;32.59;46.52
70170;DHT22;57543;45.442;9.212;2023-07-31T16:05:07;32.50;46.44
70170;DHT22;57543;45.442;9.212;2023-07-31T16:08:11;32.50;46.37
70170;DHT22;57543;45.442;9.212;2023-07-31T16:11:15;32.34;46.19
70170;DHT22;57543;45.442;9.212;2023-07-31T16:14:18;32.23;46.75
70170;DHT22;57543;45.442;9.212;2023-07-31T16:17:22;32.13;47.32
70170;DHT22;57543;45.442;9.212;2023-07-31T16:20:26;32.14;47.76
70170;DHT22;57543;45.442;9.212;2023-07-31T16:23:32;32.03;48.28
70170;DHT22;57543;45.442;9.212;2023-07-31T16:26:36;32.05;48.42
70170;DHT22;57543;45.442;9.212;2023-07-31T16:29:39;32.10;48.19
70170;DHT22;57543;45.442;9.212;2023-07-31T16:32:42;31.94;49.05
70170;DHT22;57543;45.442;9.212;2023-07-31T16:35:48;31.90;48.51
70170;DHT22;57543;45.442;9.212;2023-07-31T16:38:51;31.78;48.74
70170;DHT22;57543;45.442;9.212;2023-07-31T16:41:55;31.75;48.78
70170;DHT22;57543;45.442;9.212;2023-07-31T16:45:01;31.68;48.85
70170;DHT22;57543;45.442;9.212;2023-07-31T16:48:04;31.55;49.27
70170;DHT22;57543;45.442;9.212;2023-07-31T16:51:08;31.52;49.85
70170;DHT22;57543;45.442;9.212;2023-07-31T16:54:15;31.45;49.35
70170;DHT22;57543;45.442;9.212;2023-07-31T16:57:18;31.35;50.11
70170;DHT22;57543;45.442;9.212;2023-07-31T17:00:22;31.39;49.76
70170;DHT22;57543;45.442;9.212;2023-07-31T17:03:26;31.27;49.79
70170;DHT22;57543;45.442;9.212;2023-07-31T17:06:30;31.37;49.95
70170;DHT22;57543;45.442;9.212;2023-07-31T17:09:33;31.38;49.86
70170;DHT22;57543;45.442;9.212;2023-07-31T17:12:37;31.37;48.91
70170;DHT22;57543;45.442;9.212;2023-07-31T17:15:41;31.24;49.30
70170;DHT22;57543;45.442;9.212;2023-07-31T17:18:45;31.33;49.68
70170;DHT22;57543;45.442;9.212;2023-07-31T17:21:48;31.30;49.64
70170;DHT22;57543;45.442;9.212;2023-07-31T17:24:52;31.28;49.82
70170;DHT22;57543;45.442;9.212;2023-07-31T17:27:56;31.28;49.48
70170;DHT22;57543;45.442;9.212;2023-07-31T17:30:59;31.20;49.62
70170;DHT22;57543;45.442;9.212;2023-07-31T17:34:03;31.14;49.47
70170;DHT22;57543;45.442;9.212;2023-07-31T17:37:07;31.04;50.18
70170;DHT22;57543;45.442;9.212;2023-07-31T17:40:10;31.11;49.95
70170;DHT22;57543;45.442;9.212;2023-07-31T17:43:14;30.90;51.66
70170;DHT22;57543;45.442;9.212;2023-07-31T17:46:17;30.78;52.05
70170;DHT22;57543;45.442;9.212;2023-07-31T17:49:20;30.80;51.64
70170;DHT22;57543;45.442;9.212;2023-07-31T17:52:24;30.83;51.74
70170;DHT22;57543;45.442;9.212;2023-07-31T17:55:28;30.63;52.24
70170;DHT22;57543;45.442;9.212;2023-07-31T17:58:32;30.62;52.41
70170;DHT22;57543;45.442;9.212;2023-07-31T18:01:36;30.63;52.35
70170;DHT22;57543;45.442;9.212;2023-07-31T18:04:39;30.69;52.34
70170;DHT22;57543;45.442;9.212;2023-07-31T18:07:43;30.62;52.38
70170;DHT22;57543;45.442;9.212;2023-07-31T18:10:46;30.61;52.19
70170;DHT22;57543;45.442;9.212;2023-07-31T18:13:50;30.49;52.38
70170;DHT22;57543;45.442;9.212;2023-07-31T18:16:57;30.46;52.22
70170;DHT22;57543;45.442;9.212;2023-07-31T18:20:00;30.48;51.76
70170;DHT22;57543;45.442;9.212;2023-07-31T18:23:04;30.44;52.14
70170;DHT22;57543;45.442;9.212;2023-07-31T18:26:08;30.48;52.78
70170;DHT22;57543;45.442;9.212;2023-07-31T18:29:11;30.42;53.67
70170;DHT22;57543;45.442;9.212;2023-07-31T18:32:15;30.41;53.90
70170;DHT22;57543;45.442;9.212;2023-07-31T18:35:20;30.42;53.95
70170;DHT22;57543;45.442;9.212;2023-07-31T18:38:24;30.28;54.19
70170;DHT22;57543;45.442;9.212;2023-07-31T18:41:28;30.27;54.39
70170;DHT22;57543;45.442;9.212;2023-07-31T18:44:32;30.21;54.59
70170;DHT22;57543;45.442;9.212;2023-07-31T18:47:35;30.14;54.98
70170;DHT22;57543;45.442;9.212;2023-07-31T18:50:40;30.18;55.23
70170;DHT22;57543;45.442;9.212;2023-07-31T18:53:45;30.07;55.46
70170;DHT22;57543;45.442;9.212;2023-07-31T18:56:48;29.99;56.08
70170;DHT22;57543;45.442;9.212;2023-07-31T18:59:52;30.03;55.77
70170;DHT22;57543;45.442;9.212;2023-07-31T19:02:56;29.99;55.73
70170;DHT22;57543;45.442;9.212;2023-07-31T19:06:00;29.96;56.02
70170;DHT22;57543;45.442;9.212;2023-07-31T19:09:06;29.96;56.00
70170;DHT22;57543;45.442;9.212;2023-07-31T19:12:09;30.00;56.04
70170;DHT22;57543;45.442;9.212;2023-07-31T19:15:14;29.99;56.33
70170;DHT22;57543;45.442;9.212;2023-07-31T19:18:18;29.94;56.46
70170;DHT22;57543;45.442;9.212;2023-07-31T19:21:21;29.99;56.50
70170;DHT22;57543;45.442;9.212;2023-07-31T19:24:25;29.87;56.85
70170;DHT22;57543;45.442;9.212;2023-07-31T19:27:28;29.89;56.81